sensor_id;sensor_type;location;lat;lon;timestamp;P1;durP1;ratioP1;P2;durP2;ratioP2
21848;SDS011;11089;49.852;19.700;2023-05-17T00:01:44;13.55;;;9.77;;
21848;SDS011;11089;49.852;19.700;2023-05-17T00:04:45;12.35;;;9.32;;
21848;SDS011;11089;49.852;19.700;2023-05-17T00:07:46;15.10;;;9.45;;
21848;SDS011;11089;49.852;19.700;2023-05-17T00:10:47;13.27;;;9.60;;
21848;SDS011;11089;49.852;19.700;2023-05-17T00:13:48;13.07;;;9.63;;
21848;SDS011;11089;49.852;19.700;2023-05-17T00:16:49;13.43;;;9.00;;
21848;SDS011;11089;49.852;19.700;2023-05-17T00:19:51;13.50;;;9.50;;
21848;SDS011;11089;49.852;19.700;2023-05-17T00:22:52;13.35;;;9.00;;
21848;SDS011;11089;49.852;19.700;2023-05-17T00:25:53;14.98;;;9.13;;
21848;SDS011;11089;49.852;19.700;2023-05-17T00:28:54;13.07;;;9.15;;
21848;SDS011;11089;49.852;19.700;2023-05-17T00:31:55;14.10;;;9.52;;
21848;SDS011;11089;49.852;19.700;2023-05-17T00:34:56;10.73;;;8.45;;
21848;SDS011;11089;49.852;19.700;2023-05-17T00:37:57;11.45;;;8.57;;
21848;SDS011;11089;49.852;19.700;2023-05-17T00:40:58;9.63;;;7.72;;
21848;SDS011;11089;49.852;19.700;2023-05-17T00:43:59;12.50;;;8.40;;
21848;SDS011;11089;49.852;19.700;2023-05-17T00:47:00;14.20;;;7.63;;
21848;SDS011;11089;49.852;19.700;2023-05-17T00:50:02;9.75;;;7.50;;
21848;SDS011;11089;49.852;19.700;2023-05-17T00:53:03;9.77;;;7.05;;
21848;SDS011;11089;49.852;19.700;2023-05-17T00:56:05;9.65;;;7.18;;
21848;SDS011;11089;49.852;19.700;2023-05-17T00:59:06;8.77;;;7.03;;
21848;SDS011;11089;49.852;19.700;2023-05-17T01:02:08;10.88;;;7.13;;
21848;SDS011;11089;49.852;19.700;2023-05-17T01:05:10;9.55;;;7.20;;
21848;SDS011;11089;49.852;19.700;2023-05-17T01:08:11;11.13;;;6.63;;
21848;SDS011;11089;49.852;19.700;2023-05-17T01:17:49;8.57;;;6.32;;
21848;SDS011;11089;49.852;19.700;2023-05-17T01:20:57;7.78;;;5.95;;
21848;SDS011;11089;49.852;19.700;2023-05-17T01:27:19;6.80;;;5.43;;
21848;SDS011;11089;49.852;19.700;2023-05-17T01:30:21;8.25;;;5.55;;
21848;SDS011;11089;49.852;19.700;2023-05-17T01:33:24;8.07;;;6.03;;
21848;SDS011;11089;49.852;19.700;2023-05-17T01:36:25;7.70;;;5.60;;
21848;SDS011;11089;49.852;19.700;2023-05-17T01:39:26;8.68;;;6.35;;
21848;SDS011;11089;49.852;19.700;2023-05-17T01:42:28;6.10;;;5.07;;
21848;SDS011;11089;49.852;19.700;2023-05-17T01:45:39;5.72;;;4.95;;
21848;SDS011;11089;49.852;19.700;2023-05-17T01:48:59;6.07;;;4.85;;
21848;SDS011;11089;49.852;19.700;2023-05-17T01:58:51;8.50;;;4.97;;
21848;SDS011;11089;49.852;19.700;2023-05-17T02:01:53;7.95;;;4.68;;
21848;SDS011;11089;49.852;19.700;2023-05-17T02:04:59;5.32;;;4.40;;
21848;SDS011;11089;49.852;19.700;2023-05-17T02:08:00;5.63;;;4.35;;
21848;SDS011;11089;49.852;19.700;2023-05-17T02:11:01;4.80;;;4.07;;
21848;SDS011;11089;49.852;19.700;2023-05-17T02:14:02;4.75;;;4.25;;
21848;SDS011;11089;49.852;19.700;2023-05-17T02:17:03;5.50;;;3.90;;
21848;SDS011;11089;49.852;19.700;2023-05-17T02:20:05;6.20;;;4.30;;
21848;SDS011;11089;49.852;19.700;2023-05-17T02:23:08;6.13;;;3.72;;
21848;SDS011;11089;49.852;19.700;2023-05-17T02:26:09;3.95;;;3.45;;
21848;SDS011;11089;49.852;19.700;2023-05-17T02:29:10;4.30;;;3.90;;
21848;SDS011;11089;49.852;19.700;2023-05-17T02:32:10;4.13;;;3.63;;
21848;SDS011;11089;49.852;19.700;2023-05-17T02:35:11;4.22;;;3.83;;
21848;SDS011;11089;49.852;19.700;2023-05-17T02:38:12;8.10;;;4.07;;
21848;SDS011;11089;49.852;19.700;2023-05-17T02:41:13;4.18;;;3.63;;
21848;SDS011;11089;49.852;19.700;2023-05-17T02:44:14;5.10;;;3.50;;
21848;SDS011;11089;49.852;19.700;2023-05-17T02:47:15;4.57;;;3.13;;
21848;SDS011;11089;49.852;19.700;2023-05-17T02:50:16;5.65;;;4.03;;
21848;SDS011;11089;49.852;19.700;2023-05-17T02:53:17;4.60;;;3.70;;
21848;SDS011;11089;49.852;19.700;2023-05-17T02:56:18;4.13;;;3.70;;
21848;SDS011;11089;49.852;19.700;2023-05-17T02:59:19;4.40;;;4.00;;
21848;SDS011;11089;49.852;19.700;2023-05-17T03:02:20;3.83;;;3.50;;
21848;SDS011;11089;49.852;19.700;2023-05-17T03:05:21;4.38;;;3.60;;
21848;SDS011;11089;49.852;19.700;2023-05-17T03:08:22;6.78;;;3.50;;
21848;SDS011;11089;49.852;19.700;2023-05-17T03:11:22;4.15;;;3.75;;
21848;SDS011;11089;49.852;19.700;2023-05-17T03:14:23;4.60;;;3.42;;
21848;SDS011;11089;49.852;19.700;2023-05-17T03:17:24;3.40;;;3.10;;
21848;SDS011;11089;49.852;19.700;2023-05-17T03:20:25;4.00;;;3.60;;
21848;SDS011;11089;49.852;19.700;2023-05-17T03:23:26;4.00;;;3.45;;
21848;SDS011;11089;49.852;19.700;2023-05-17T03:26:27;4.18;;;3.78;;
21848;SDS011;11089;49.852;19.700;2023-05-17T03:29:28;5.82;;;3.78;;
21848;SDS011;11089;49.852;19.700;2023-05-17T03:32:29;3.97;;;3.25;;
21848;SDS011;11089;49.852;19.700;2023-05-17T03:35:30;3.75;;;2.72;;
21848;SDS011;11089;49.852;19.700;2023-05-17T03:38:31;3.13;;;2.83;;
21848;SDS011;11089;49.852;19.700;2023-05-17T03:41:32;3.80;;;3.30;;
21848;SDS011;11089;49.852;19.700;2023-05-17T03:44:33;5.03;;;2.95;;
21848;SDS011;11089;49.852;19.700;2023-05-17T03:47:33;3.22;;;2.78;;
21848;SDS011;11089;49.852;19.700;2023-05-17T03:50:35;5.65;;;3.45;;
21848;SDS011;11089;49.852;19.700;2023-05-17T03:53:36;4.10;;;3.67;;
21848;SDS011;11089;49.852;19.700;2023-05-17T03:56:40;4.03;;;3.20;;
21848;SDS011;11089;49.852;19.700;2023-05-17T03:59:46;3.25;;;2.90;;
21848;SDS011;11089;49.852;19.700;2023-05-17T04:02:47;3.20;;;2.90;;
21848;SDS011;11089;49.852;19.700;2023-05-17T04:05:48;3.83;;;3.42;;
21848;SDS011;11089;49.852;19.700;2023-05-17T04:08:49;3.80;;;3.33;;
21848;SDS011;11089;49.852;19.700;2023-05-17T04:11:50;3.80;;;3.45;;
21848;SDS011;11089;49.852;19.700;2023-05-17T04:14:51;6.10;;;4.30;;
21848;SDS011;11089;49.852;19.700;2023-05-17T04:17:52;4.00;;;3.55;;
21848;SDS011;11089;49.852;19.700;2023-05-17T04:20:53;5.40;;;3.85;;
21848;SDS011;11089;49.852;19.700;2023-05-17T04:23:55;6.22;;;4.70;;
21848;SDS011;11089;49.852;19.700;2023-05-17T04:26:56;5.05;;;4.55;;
21848;SDS011;11089;49.852;19.700;2023-05-17T04:29:58;6.20;;;4.85;;
21848;SDS011;11089;49.852;19.700;2023-05-17T04:32:59;3.65;;;3.30;;
21848;SDS011;11089;49.852;19.700;2023-05-17T04:36:00;4.38;;;3.45;;
21848;SDS011;11089;49.852;19.700;2023-05-17T04:39:01;3.67;;;3.13;;
21848;SDS011;11089;49.852;19.700;2023-05-17T04:42:03;5.47;;;3.55;;
21848;SDS011;11089;49.852;19.700;2023-05-17T04:45:04;5.53;;;3.20;;
21848;SDS011;11089;49.852;19.700;2023-05-17T04:48:05;3.10;;;2.80;;
21848;SDS011;11089;49.852;19.700;2023-05-17T04:51:06;4.13;;;3.45;;
21848;SDS011;11089;49.852;19.700;2023-05-17T04:54:07;3.55;;;3.10;;
21848;SDS011;11089;49.852;19.700;2023-05-17T04:57:08;3.47;;;3.00;;
21848;SDS011;11089;49.852;19.700;2023-05-17T05:00:09;3.80;;;3.28;;
21848;SDS011;11089;49.852;19.700;2023-05-17T05:03:10;3.65;;;3.33;;
21848;SDS011;11089;49.852;19.700;2023-05-17T05:06:11;3.85;;;3.40;;
21848;SDS011;11089;49.852;19.700;2023-05-17T05:09:12;4.78;;;2.95;;
21848;SDS011;11089;49.852;19.700;2023-05-17T05:12:13;6.97;;;3.50;;
21848;SDS011;11089;49.852;19.700;2023-05-17T05:15:15;3.60;;;3.10;;
21848;SDS011;11089;49.852;19.700;2023-05-17T05:18:16;5.32;;;3.35;;
21848;SDS011;11089;49.852;19.700;2023-05-17T05:21:17;4.70;;;3.78;;
21848;SDS011;11089;49.852;19.700;2023-05-17T05:24:18;4.53;;;3.60;;
21848;SDS011;11089;49.852;19.700;2023-05-17T05:27:19;3.95;;;2.80;;
21848;SDS011;11089;49.852;19.700;2023-05-17T05:30:20;5.65;;;3.28;;
21848;SDS011;11089;49.852;19.700;2023-05-17T05:33:21;2.90;;;2.60;;
21848;SDS011;11089;49.852;19.700;2023-05-17T05:36:22;3.83;;;3.00;;
21848;SDS011;11089;49.852;19.700;2023-05-17T05:39:23;4.72;;;3.40;;
21848;SDS011;11089;49.852;19.700;2023-05-17T05:42:24;3.80;;;3.20;;
21848;SDS011;11089;49.852;19.700;2023-05-17T05:45:26;4.65;;;2.92;;
21848;SDS011;11089;49.852;19.700;2023-05-17T05:48:27;3.50;;;3.00;;
21848;SDS011;11089;49.852;19.700;2023-05-17T05:51:28;7.22;;;5.03;;
21848;SDS011;11089;49.852;19.700;2023-05-17T05:54:29;5.38;;;3.67;;
21848;SDS011;11089;49.852;19.700;2023-05-17T05:57:30;3.35;;;2.83;;
21848;SDS011;11089;49.852;19.700;2023-05-17T06:00:31;3.08;;;2.60;;
21848;SDS011;11089;49.852;19.700;2023-05-17T06:03:32;3.50;;;2.70;;
21848;SDS011;11089;49.852;19.700;2023-05-17T06:06:33;5.50;;;2.83;;
21848;SDS011;11089;49.852;19.700;2023-05-17T06:09:34;4.60;;;2.90;;
21848;SDS011;11089;49.852;19.700;2023-05-17T06:12:35;2.50;;;2.30;;
21848;SDS011;11089;49.852;19.700;2023-05-17T06:15:36;2.85;;;2.63;;
21848;SDS011;11089;49.852;19.700;2023-05-17T06:18:37;2.85;;;2.53;;
21848;SDS011;11089;49.852;19.700;2023-05-17T06:21:38;3.60;;;2.58;;
21848;SDS011;11089;49.852;19.700;2023-05-17T06:24:39;3.78;;;2.75;;
21848;SDS011;11089;49.852;19.700;2023-05-17T06:27:40;3.92;;;2.97;;
21848;SDS011;11089;49.852;19.700;2023-05-17T06:30:41;3.88;;;2.90;;
21848;SDS011;11089;49.852;19.700;2023-05-17T06:33:42;4.20;;;3.35;;
21848;SDS011;11089;49.852;19.700;2023-05-17T06:36:43;4.40;;;2.78;;
21848;SDS011;11089;49.852;19.700;2023-05-17T06:39:44;3.72;;;3.20;;
21848;SDS011;11089;49.852;19.700;2023-05-17T06:42:45;4.88;;;2.70;;
21848;SDS011;11089;49.852;19.700;2023-05-17T06:45:46;2.75;;;2.50;;
21848;SDS011;11089;49.852;19.700;2023-05-17T06:48:47;3.72;;;2.58;;
21848;SDS011;11089;49.852;19.700;2023-05-17T06:51:48;3.25;;;2.50;;
21848;SDS011;11089;49.852;19.700;2023-05-17T06:54:49;3.92;;;2.67;;
21848;SDS011;11089;49.852;19.700;2023-05-17T06:57:50;2.95;;;2.63;;
21848;SDS011;11089;49.852;19.700;2023-05-17T07:00:51;4.95;;;2.60;;
21848;SDS011;11089;49.852;19.700;2023-05-17T07:03:52;3.15;;;2.50;;
21848;SDS011;11089;49.852;19.700;2023-05-17T07:06:53;4.65;;;2.65;;
21848;SDS011;11089;49.852;19.700;2023-05-17T07:09:54;6.60;;;3.55;;
21848;SDS011;11089;49.852;19.700;2023-05-17T07:13:12;6.80;;;3.97;;
21848;SDS011;11089;49.852;19.700;2023-05-17T07:16:13;7.78;;;2.75;;
21848;SDS011;11089;49.852;19.700;2023-05-17T07:19:14;6.85;;;3.78;;
21848;SDS011;11089;49.852;19.700;2023-05-17T07:22:15;7.22;;;2.95;;
21848;SDS011;11089;49.852;19.700;2023-05-17T07:25:17;5.07;;;2.53;;
21848;SDS011;11089;49.852;19.700;2023-05-17T07:28:20;4.00;;;2.22;;
21848;SDS011;11089;49.852;19.700;2023-05-17T07:31:21;3.17;;;1.92;;
21848;SDS011;11089;49.852;19.700;2023-05-17T07:34:22;2.78;;;1.63;;
21848;SDS011;11089;49.852;19.700;2023-05-17T07:37:23;2.33;;;1.50;;
21848;SDS011;11089;49.852;19.700;2023-05-17T07:40:23;3.08;;;1.40;;
21848;SDS011;11089;49.852;19.700;2023-05-17T07:43:24;3.72;;;1.60;;
21848;SDS011;11089;49.852;19.700;2023-05-17T07:46:25;1.80;;;1.60;;
21848;SDS011;11089;49.852;19.700;2023-05-17T07:49:26;1.92;;;1.67;;
21848;SDS011;11089;49.852;19.700;2023-05-17T07:52:27;2.80;;;1.67;;
21848;SDS011;11089;49.852;19.700;2023-05-17T07:55:28;1.83;;;1.60;;
21848;SDS011;11089;49.852;19.700;2023-05-17T07:58:29;3.95;;;1.60;;
21848;SDS011;11089;49.852;19.700;2023-05-17T08:01:30;2.20;;;1.60;;
21848;SDS011;11089;49.852;19.700;2023-05-17T08:04:31;1.80;;;1.60;;
21848;SDS011;11089;49.852;19.700;2023-05-17T08:07:32;2.65;;;1.95;;
21848;SDS011;11089;49.852;19.700;2023-05-17T08:10:33;2.53;;;2.15;;
21848;SDS011;11089;49.852;19.700;2023-05-17T08:13:35;7.13;;;2.08;;
21848;SDS011;11089;49.852;19.700;2023-05-17T08:16:36;3.03;;;2.20;;
21848;SDS011;11089;49.852;19.700;2023-05-17T08:19:37;11.98;;;5.60;;
21848;SDS011;11089;49.852;19.700;2023-05-17T08:22:39;8.48;;;4.60;;
21848;SDS011;11089;49.852;19.700;2023-05-17T08:25:40;13.65;;;7.68;;
21848;SDS011;11089;49.852;19.700;2023-05-17T08:28:41;7.55;;;5.00;;
21848;SDS011;11089;49.852;19.700;2023-05-17T08:31:42;7.22;;;5.15;;
21848;SDS011;11089;49.852;19.700;2023-05-17T08:34:43;6.15;;;3.90;;
21848;SDS011;11089;49.852;19.700;2023-05-17T08:37:44;4.93;;;3.20;;
21848;SDS011;11089;49.852;19.700;2023-05-17T08:40:51;3.83;;;3.10;;
21848;SDS011;11089;49.852;19.700;2023-05-17T08:43:55;4.07;;;2.45;;
21848;SDS011;11089;49.852;19.700;2023-05-17T08:46:58;4.43;;;3.30;;
21848;SDS011;11089;49.852;19.700;2023-05-17T08:50:00;4.30;;;3.10;;
21848;SDS011;11089;49.852;19.700;2023-05-17T08:53:04;4.00;;;3.30;;
21848;SDS011;11089;49.852;19.700;2023-05-17T08:56:06;3.45;;;2.63;;
21848;SDS011;11089;49.852;19.700;2023-05-17T08:59:10;2.72;;;2.30;;
21848;SDS011;11089;49.852;19.700;2023-05-17T09:02:12;3.85;;;3.15;;
21848;SDS011;11089;49.852;19.700;2023-05-17T09:05:13;3.35;;;2.80;;
21848;SDS011;11089;49.852;19.700;2023-05-17T09:08:15;4.43;;;2.72;;
21848;SDS011;11089;49.852;19.700;2023-05-17T09:11:23;4.60;;;3.03;;
21848;SDS011;11089;49.852;19.700;2023-05-17T09:14:31;5.95;;;3.00;;
21848;SDS011;11089;49.852;19.700;2023-05-17T09:17:34;4.30;;;3.38;;
21848;SDS011;11089;49.852;19.700;2023-05-17T09:20:34;5.82;;;3.85;;
21848;SDS011;11089;49.852;19.700;2023-05-17T09:23:37;5.47;;;3.67;;
21848;SDS011;11089;49.852;19.700;2023-05-17T09:26:39;6.93;;;3.67;;
21848;SDS011;11089;49.852;19.700;2023-05-17T09:29:44;4.82;;;3.33;;
21848;SDS011;11089;49.852;19.700;2023-05-17T09:32:46;4.28;;;3.40;;
21848;SDS011;11089;49.852;19.700;2023-05-17T09:35:49;3.70;;;2.58;;
21848;SDS011;11089;49.852;19.700;2023-05-17T09:39:00;4.82;;;2.60;;
21848;SDS011;11089;49.852;19.700;2023-05-17T09:42:06;3.00;;;1.98;;
21848;SDS011;11089;49.852;19.700;2023-05-17T09:45:08;2.53;;;2.20;;
21848;SDS011;11089;49.852;19.700;2023-05-17T09:48:16;2.92;;;2.00;;
21848;SDS011;11089;49.852;19.700;2023-05-17T09:51:18;3.28;;;2.70;;
21848;SDS011;11089;49.852;19.700;2023-05-17T09:54:19;3.25;;;2.38;;
21848;SDS011;11089;49.852;19.700;2023-05-17T09:57:20;3.65;;;3.05;;
21848;SDS011;11089;49.852;19.700;2023-05-17T10:00:21;7.28;;;5.05;;
21848;SDS011;11089;49.852;19.700;2023-05-17T10:03:23;6.97;;;3.92;;
21848;SDS011;11089;49.852;19.700;2023-05-17T10:06:45;7.03;;;4.40;;
21848;SDS011;11089;49.852;19.700;2023-05-17T10:09:48;4.60;;;3.92;;
21848;SDS011;11089;49.852;19.700;2023-05-17T10:12:51;7.07;;;4.88;;
21848;SDS011;11089;49.852;19.700;2023-05-17T10:15:52;7.43;;;5.10;;
21848;SDS011;11089;49.852;19.700;2023-05-17T10:18:54;9.13;;;5.57;;
21848;SDS011;11089;49.852;19.700;2023-05-17T10:21:55;6.93;;;4.80;;
21848;SDS011;11089;49.852;19.700;2023-05-17T10:24:57;9.90;;;6.18;;
21848;SDS011;11089;49.852;19.700;2023-05-17T10:27:58;13.32;;;6.93;;
21848;SDS011;11089;49.852;19.700;2023-05-17T10:31:02;10.40;;;5.72;;
21848;SDS011;11089;49.852;19.700;2023-05-17T10:34:03;7.93;;;5.70;;
21848;SDS011;11089;49.852;19.700;2023-05-17T10:37:08;8.05;;;5.40;;
21848;SDS011;11089;49.852;19.700;2023-05-17T10:40:10;8.05;;;5.63;;
21848;SDS011;11089;49.852;19.700;2023-05-17T10:43:12;8.77;;;5.10;;
21848;SDS011;11089;49.852;19.700;2023-05-17T10:46:15;7.45;;;5.07;;
21848;SDS011;11089;49.852;19.700;2023-05-17T10:49:29;7.53;;;5.55;;
21848;SDS011;11089;49.852;19.700;2023-05-17T10:52:32;6.07;;;5.13;;
21848;SDS011;11089;49.852;19.700;2023-05-17T10:55:37;6.18;;;4.20;;
21848;SDS011;11089;49.852;19.700;2023-05-17T10:58:39;5.30;;;4.10;;
21848;SDS011;11089;49.852;19.700;2023-05-17T11:05:05;4.85;;;3.55;;
21848;SDS011;11089;49.852;19.700;2023-05-17T11:08:13;4.38;;;3.45;;
21848;SDS011;11089;49.852;19.700;2023-05-17T11:11:18;5.78;;;3.53;;
21848;SDS011;11089;49.852;19.700;2023-05-17T11:14:19;3.95;;;3.30;;
21848;SDS011;11089;49.852;19.700;2023-05-17T11:17:25;4.93;;;3.60;;
21848;SDS011;11089;49.852;19.700;2023-05-17T11:23:28;5.43;;;3.40;;
21848;SDS011;11089;49.852;19.700;2023-05-17T11:26:36;5.40;;;3.22;;
21848;SDS011;11089;49.852;19.700;2023-05-17T11:29:38;3.60;;;3.05;;
21848;SDS011;11089;49.852;19.700;2023-05-17T11:32:45;3.72;;;2.80;;
21848;SDS011;11089;49.852;19.700;2023-05-17T11:35:48;4.00;;;2.70;;
21848;SDS011;11089;49.852;19.700;2023-05-17T11:42:22;4.90;;;2.67;;
21848;SDS011;11089;49.852;19.700;2023-05-17T11:45:25;4.18;;;2.80;;
21848;SDS011;11089;49.852;19.700;2023-05-17T11:48:26;3.13;;;2.45;;
21848;SDS011;11089;49.852;19.700;2023-05-17T11:51:30;5.95;;;3.50;;
21848;SDS011;11089;49.852;19.700;2023-05-17T11:54:32;5.10;;;3.80;;
21848;SDS011;11089;49.852;19.700;2023-05-17T11:57:34;4.35;;;3.72;;
21848;SDS011;11089;49.852;19.700;2023-05-17T12:00:37;6.65;;;4.55;;
21848;SDS011;11089;49.852;19.700;2023-05-17T12:03:41;5.95;;;4.53;;
21848;SDS011;11089;49.852;19.700;2023-05-17T12:06:42;5.25;;;3.85;;
21848;SDS011;11089;49.852;19.700;2023-05-17T12:09:44;5.35;;;3.65;;
21848;SDS011;11089;49.852;19.700;2023-05-17T12:12:45;4.38;;;3.88;;
21848;SDS011;11089;49.852;19.700;2023-05-17T12:15:56;5.32;;;4.07;;
21848;SDS011;11089;49.852;19.700;2023-05-17T12:19:00;4.38;;;3.97;;
21848;SDS011;11089;49.852;19.700;2023-05-17T12:22:08;7.80;;;4.55;;
21848;SDS011;11089;49.852;19.700;2023-05-17T12:25:22;5.38;;;4.57;;
21848;SDS011;11089;49.852;19.700;2023-05-17T12:28:28;5.38;;;4.40;;
21848;SDS011;11089;49.852;19.700;2023-05-17T12:31:33;6.85;;;4.60;;
21848;SDS011;11089;49.852;19.700;2023-05-17T12:34:38;7.18;;;4.40;;
21848;SDS011;11089;49.852;19.700;2023-05-17T12:37:40;10.23;;;4.90;;
21848;SDS011;11089;49.852;19.700;2023-05-17T12:40:42;8.95;;;5.05;;
21848;SDS011;11089;49.852;19.700;2023-05-17T12:43:43;9.32;;;5.70;;
21848;SDS011;11089;49.852;19.700;2023-05-17T12:46:47;10.13;;;6.15;;
21848;SDS011;11089;49.852;19.700;2023-05-17T12:49:58;10.40;;;6.25;;
21848;SDS011;11089;49.852;19.700;2023-05-17T12:53:06;8.70;;;6.10;;
21848;SDS011;11089;49.852;19.700;2023-05-17T12:56:10;9.20;;;6.05;;
21848;SDS011;11089;49.852;19.700;2023-05-17T12:59:23;8.80;;;5.65;;
21848;SDS011;11089;49.852;19.700;2023-05-17T13:02:24;9.55;;;5.95;;
21848;SDS011;11089;49.852;19.700;2023-05-17T13:05:25;10.20;;;6.22;;
21848;SDS011;11089;49.852;19.700;2023-05-17T13:08:26;13.50;;;7.82;;
21848;SDS011;11089;49.852;19.700;2023-05-17T13:11:27;13.57;;;7.90;;
21848;SDS011;11089;49.852;19.700;2023-05-17T13:17:33;14.10;;;8.10;;
21848;SDS011;11089;49.852;19.700;2023-05-17T13:20:35;11.48;;;7.75;;
21848;SDS011;11089;49.852;19.700;2023-05-17T13:23:41;15.63;;;8.15;;
21848;SDS011;11089;49.852;19.700;2023-05-17T13:26:46;9.38;;;6.85;;
21848;SDS011;11089;49.852;19.700;2023-05-17T13:29:47;13.80;;;8.50;;
21848;SDS011;11089;49.852;19.700;2023-05-17T13:32:48;10.05;;;7.38;;
21848;SDS011;11089;49.852;19.700;2023-05-17T13:35:50;11.10;;;6.82;;
21848;SDS011;11089;49.852;19.700;2023-05-17T13:38:51;9.63;;;6.82;;
21848;SDS011;11089;49.852;19.700;2023-05-17T13:41:52;11.32;;;7.47;;
21848;SDS011;11089;49.852;19.700;2023-05-17T13:44:53;10.43;;;6.88;;
21848;SDS011;11089;49.852;19.700;2023-05-17T13:47:54;10.32;;;6.63;;
21848;SDS011;11089;49.852;19.700;2023-05-17T13:50:55;10.40;;;7.10;;
21848;SDS011;11089;49.852;19.700;2023-05-17T13:53:56;12.57;;;7.55;;
21848;SDS011;11089;49.852;19.700;2023-05-17T13:56:57;12.23;;;7.75;;
21848;SDS011;11089;49.852;19.700;2023-05-17T13:59:58;13.70;;;7.13;;
21848;SDS011;11089;49.852;19.700;2023-05-17T14:02:59;12.20;;;7.88;;
21848;SDS011;11089;49.852;19.700;2023-05-17T14:05:59;12.35;;;7.93;;
21848;SDS011;11089;49.852;19.700;2023-05-17T14:09:02;14.77;;;8.02;;
21848;SDS011;11089;49.852;19.700;2023-05-17T14:12:04;13.27;;;8.15;;
21848;SDS011;11089;49.852;19.700;2023-05-17T14:15:05;12.40;;;8.57;;
21848;SDS011;11089;49.852;19.700;2023-05-17T14:18:08;13.48;;;8.00;;
21848;SDS011;11089;49.852;19.700;2023-05-17T14:21:09;13.27;;;7.90;;
21848;SDS011;11089;49.852;19.700;2023-05-17T14:24:10;11.82;;;8.20;;
21848;SDS011;11089;49.852;19.700;2023-05-17T14:27:12;12.73;;;7.72;;
21848;SDS011;11089;49.852;19.700;2023-05-17T14:30:13;14.45;;;8.48;;
21848;SDS011;11089;49.852;19.700;2023-05-17T14:33:15;12.35;;;8.00;;
21848;SDS011;11089;49.852;19.700;2023-05-17T14:36:17;13.77;;;9.32;;
21848;SDS011;11089;49.852;19.700;2023-05-17T14:39:18;13.07;;;8.30;;
21848;SDS011;11089;49.852;19.700;2023-05-17T14:42:19;13.27;;;9.07;;
21848;SDS011;11089;49.852;19.700;2023-05-17T14:45:20;13.57;;;9.85;;
21848;SDS011;11089;49.852;19.700;2023-05-17T14:48:21;13.02;;;8.40;;
21848;SDS011;11089;49.852;19.700;2023-05-17T14:51:22;13.65;;;8.07;;
21848;SDS011;11089;49.852;19.700;2023-05-17T14:54:24;10.40;;;7.63;;
21848;SDS011;11089;49.852;19.700;2023-05-17T14:57:28;12.25;;;7.40;;
21848;SDS011;11089;49.852;19.700;2023-05-17T15:00:30;10.82;;;7.68;;
21848;SDS011;11089;49.852;19.700;2023-05-17T15:03:31;11.35;;;7.85;;
21848;SDS011;11089;49.852;19.700;2023-05-17T15:06:32;10.77;;;7.60;;
21848;SDS011;11089;49.852;19.700;2023-05-17T15:09:39;11.15;;;8.07;;
21848;SDS011;11089;49.852;19.700;2023-05-17T15:12:42;9.57;;;7.43;;
21848;SDS011;11089;49.852;19.700;2023-05-17T15:15:43;10.23;;;7.38;;
21848;SDS011;11089;49.852;19.700;2023-05-17T15:18:45;11.93;;;7.78;;
21848;SDS011;11089;49.852;19.700;2023-05-17T15:21:47;12.55;;;7.38;;
21848;SDS011;11089;49.852;19.700;2023-05-17T15:24:48;9.90;;;7.47;;
21848;SDS011;11089;49.852;19.700;2023-05-17T15:27:49;15.52;;;9.70;;
21848;SDS011;11089;49.852;19.700;2023-05-17T15:30:58;12.23;;;8.43;;
21848;SDS011;11089;49.852;19.700;2023-05-17T15:34:05;12.88;;;8.23;;
21848;SDS011;11089;49.852;19.700;2023-05-17T15:37:07;11.98;;;7.95;;
21848;SDS011;11089;49.852;19.700;2023-05-17T15:40:08;13.63;;;7.45;;
21848;SDS011;11089;49.852;19.700;2023-05-17T15:43:10;11.65;;;7.43;;
21848;SDS011;11089;49.852;19.700;2023-05-17T15:46:11;14.77;;;8.80;;
21848;SDS011;11089;49.852;19.700;2023-05-17T15:49:12;17.00;;;8.68;;
21848;SDS011;11089;49.852;19.700;2023-05-17T15:52:13;16.05;;;7.97;;
21848;SDS011;11089;49.852;19.700;2023-05-17T15:55:14;12.25;;;7.57;;
21848;SDS011;11089;49.852;19.700;2023-05-17T15:58:16;17.13;;;7.85;;
21848;SDS011;11089;49.852;19.700;2023-05-17T16:01:21;16.88;;;9.23;;
21848;SDS011;11089;49.852;19.700;2023-05-17T16:04:22;17.05;;;8.30;;
21848;SDS011;11089;49.852;19.700;2023-05-17T16:07:22;18.77;;;8.90;;
21848;SDS011;11089;49.852;19.700;2023-05-17T16:10:25;14.15;;;8.13;;
21848;SDS011;11089;49.852;19.700;2023-05-17T16:13:26;14.48;;;9.32;;
21848;SDS011;11089;49.852;19.700;2023-05-17T16:16:27;15.05;;;8.02;;
21848;SDS011;11089;49.852;19.700;2023-05-17T16:19:28;14.40;;;8.18;;
21848;SDS011;11089;49.852;19.700;2023-05-17T16:22:32;14.85;;;8.13;;
21848;SDS011;11089;49.852;19.700;2023-05-17T16:25:33;12.80;;;7.95;;
21848;SDS011;11089;49.852;19.700;2023-05-17T16:28:35;12.07;;;7.68;;
21848;SDS011;11089;49.852;19.700;2023-05-17T16:31:36;11.98;;;7.38;;
21848;SDS011;11089;49.852;19.700;2023-05-17T16:34:37;16.17;;;8.05;;
21848;SDS011;11089;49.852;19.700;2023-05-17T16:37:38;13.57;;;7.53;;
21848;SDS011;11089;49.852;19.700;2023-05-17T16:40:40;14.02;;;7.85;;
21848;SDS011;11089;49.852;19.700;2023-05-17T16:43:40;15.90;;;8.60;;
21848;SDS011;11089;49.852;19.700;2023-05-17T16:46:41;20.85;;;11.52;;
21848;SDS011;11089;49.852;19.700;2023-05-17T16:49:43;25.98;;;13.40;;
21848;SDS011;11089;49.852;19.700;2023-05-17T16:52:44;24.52;;;13.25;;
21848;SDS011;11089;49.852;19.700;2023-05-17T16:55:45;26.48;;;14.05;;
21848;SDS011;11089;49.852;19.700;2023-05-17T16:58:46;26.73;;;13.48;;
21848;SDS011;11089;49.852;19.700;2023-05-17T17:01:47;22.48;;;12.95;;
21848;SDS011;11089;49.852;19.700;2023-05-17T17:04:48;22.77;;;13.07;;
21848;SDS011;11089;49.852;19.700;2023-05-17T17:07:49;20.73;;;12.02;;
21848;SDS011;11089;49.852;19.700;2023-05-17T17:10:50;21.73;;;12.82;;
21848;SDS011;11089;49.852;19.700;2023-05-17T17:13:51;21.60;;;13.13;;
21848;SDS011;11089;49.852;19.700;2023-05-17T17:16:52;23.88;;;12.65;;
21848;SDS011;11089;49.852;19.700;2023-05-17T17:19:53;26.70;;;13.73;;
21848;SDS011;11089;49.852;19.700;2023-05-17T17:22:55;20.10;;;11.68;;
21848;SDS011;11089;49.852;19.700;2023-05-17T17:25:56;20.67;;;12.48;;
21848;SDS011;11089;49.852;19.700;2023-05-17T17:28:57;20.88;;;11.50;;
21848;SDS011;11089;49.852;19.700;2023-05-17T17:31:58;18.98;;;11.05;;
21848;SDS011;11089;49.852;19.700;2023-05-17T17:34:59;19.58;;;10.38;;
21848;SDS011;11089;49.852;19.700;2023-05-17T17:38:00;18.35;;;10.60;;
21848;SDS011;11089;49.852;19.700;2023-05-17T17:41:02;17.42;;;9.60;;
21848;SDS011;11089;49.852;19.700;2023-05-17T17:44:03;16.70;;;9.68;;
21848;SDS011;11089;49.852;19.700;2023-05-17T17:47:04;16.20;;;9.73;;
21848;SDS011;11089;49.852;19.700;2023-05-17T17:50:07;21.17;;;9.82;;
21848;SDS011;11089;49.852;19.700;2023-05-17T17:53:08;15.60;;;10.00;;
21848;SDS011;11089;49.852;19.700;2023-05-17T17:56:09;17.50;;;10.10;;
21848;SDS011;11089;49.852;19.700;2023-05-17T17:59:10;16.55;;;9.43;;
21848;SDS011;11089;49.852;19.700;2023-05-17T18:02:12;17.25;;;9.95;;
21848;SDS011;11089;49.852;19.700;2023-05-17T18:05:13;17.83;;;9.98;;
21848;SDS011;11089;49.852;19.700;2023-05-17T18:08:14;15.98;;;10.35;;
21848;SDS011;11089;49.852;19.700;2023-05-17T18:11:15;24.08;;;12.57;;
21848;SDS011;11089;49.852;19.700;2023-05-17T18:14:16;22.20;;;12.35;;
21848;SDS011;11089;49.852;19.700;2023-05-17T18:17:18;27.27;;;16.35;;
21848;SDS011;11089;49.852;19.700;2023-05-17T18:20:20;23.35;;;13.52;;
21848;SDS011;11089;49.852;19.700;2023-05-17T18:23:25;24.70;;;14.75;;